createdAt,value
2018-03-21T00:03:28.400Z,5.93
2018-03-21T00:08:31.906Z,6.20
2018-03-21T00:13:36.350Z,5.70
2018-03-21T00:18:39.848Z,6.00
2018-03-21T00:23:42.965Z,5.97
2018-03-21T00:28:46.464Z,6.20
2018-03-21T00:33:49.948Z,6.13
2018-03-21T00:38:53.081Z,5.83
2018-03-21T00:43:56.557Z,5.40
2018-03-21T00:49:00.041Z,5.60
2018-03-21T00:54:03.528Z,5.37
2018-03-21T00:59:07.979Z,5.73
2018-03-21T01:04:11.476Z,6.70
2018-03-21T01:09:15.697Z,6.40
2018-03-21T01:14:19.928Z,6.75
2018-03-21T01:19:24.360Z,6.33
2018-03-21T01:24:28.985Z,6.33
2018-03-21T01:29:32.088Z,5.63
2018-03-21T01:34:36.313Z,5.67
2018-03-21T01:39:40.772Z,5.30
2018-03-21T01:44:45.188Z,5.70
2018-03-21T01:49:48.293Z,5.60
2018-03-21T01:54:52.144Z,6.20
2018-03-21T01:59:55.267Z,5.60
2018-03-21T02:04:59.124Z,5.73
2018-03-21T02:10:02.613Z,4.83
2018-03-21T02:15:07.224Z,5.23
2018-03-21T02:20:10.323Z,5.57
2018-03-21T02:25:13.432Z,5.63
2018-03-21T02:30:16.536Z,5.50
2018-03-21T02:35:19.689Z,5.43
2018-03-21T02:40:24.108Z,5.03
2018-03-21T02:45:27.974Z,5.83
2018-03-21T02:50:31.477Z,5.57
2018-03-21T02:55:34.588Z,6.40
2018-03-21T03:00:39.172Z,6.27
2018-03-21T03:05:43.421Z,6.50
2018-03-21T03:10:46.522Z,5.73
2018-03-21T03:15:51.129Z,5.50
2018-03-21T03:20:54.611Z,6.27
2018-03-21T03:25:59.064Z,5.60
2018-03-21T03:31:02.941Z,8.27
2018-03-21T03:36:07.542Z,6.20
2018-03-21T03:41:11.056Z,5.90
2018-03-21T03:46:15.287Z,6.00
2018-03-21T03:51:19.529Z,6.20
2018-03-21T03:56:23.988Z,5.83
2018-03-21T04:01:28.013Z,5.77
2018-03-21T04:06:32.463Z,5.73
2018-03-21T04:11:35.568Z,6.63
2018-03-21T04:16:39.068Z,6.13
2018-03-21T04:21:42.571Z,7.03
2018-03-21T04:26:46.436Z,6.73
2018-03-21T04:31:51.055Z,6.37
2018-03-21T04:37:04.152Z,5.73
2018-03-21T04:42:08.618Z,6.83
2018-03-21T04:47:13.224Z,7.10
2018-03-21T04:52:17.714Z,6.30
2018-03-21T04:57:21.224Z,6.93
2018-03-21T05:02:25.097Z,6.60
2018-03-21T05:07:29.564Z,6.13
2018-03-21T05:12:34.015Z,6.90
2018-03-21T05:17:37.108Z,7.73
2018-03-21T05:22:40.207Z,6.73
2018-03-21T05:27:43.308Z,6.53
2018-03-21T05:32:46.403Z,6.90
2018-03-21T05:37:50.854Z,6.73
2018-03-21T05:42:54.372Z,7.32
2018-03-21T05:47:58.604Z,6.73
2018-03-21T05:53:02.440Z,6.87
2018-03-21T05:58:06.251Z,7.03
2018-03-21T06:03:10.716Z,7.10
2018-03-21T06:08:13.816Z,6.43
2018-03-21T06:13:16.920Z,8.00
2018-03-21T06:18:20.034Z,6.87
2018-03-21T06:23:24.482Z,6.53
2018-03-21T06:28:27.555Z,6.40
2018-03-21T06:33:30.633Z,5.67
2018-03-21T06:38:33.721Z,5.23
2018-03-21T06:43:37.572Z,4.90
2018-03-21T06:48:41.422Z,6.40
2018-03-21T06:53:45.847Z,6.03
2018-03-21T06:58:48.935Z,6.65
2018-03-21T07:03:52.415Z,5.83
2018-03-21T07:08:55.491Z,6.60
2018-03-21T07:14:16.475Z,5.77
2018-03-21T07:19:19.575Z,5.33
2018-03-21T07:24:23.048Z,5.63
2018-03-21T07:29:26.144Z,5.90
2018-03-21T07:34:29.231Z,5.67
2018-03-21T07:39:33.683Z,5.73
2018-03-21T07:44:36.784Z,5.62
2018-03-21T07:49:40.300Z,5.60
2018-03-21T07:54:45.884Z,5.60
2018-03-21T07:59:49.084Z,4.93
2018-03-21T08:04:52.563Z,5.80
2018-03-21T08:09:56.091Z,5.10
2018-03-21T08:15:00.011Z,5.77
2018-03-21T08:20:03.102Z,5.75
2018-03-21T08:25:06.623Z,5.83
2018-03-21T08:30:10.448Z,6.30
2018-03-21T08:35:14.308Z,5.53
2018-03-21T08:40:18.558Z,5.83
2018-03-21T08:45:21.652Z,6.37
2018-03-21T08:50:25.529Z,6.90
2018-03-21T08:55:28.713Z,6.80
2018-03-21T09:00:32.576Z,7.03
2018-03-21T09:05:37.072Z,6.93
2018-03-21T09:10:40.161Z,7.32
2018-03-21T09:15:43.255Z,8.68
2018-03-21T09:20:47.123Z,13.80
2018-03-21T09:25:50.234Z,17.85
2018-03-21T09:30:53.751Z,18.60
2018-03-21T09:35:58.738Z,23.87
2018-03-21T09:41:07.062Z,34.57
2018-03-21T09:46:10.918Z,32.60
2018-03-21T09:51:14.197Z,34.87
2018-03-21T09:56:18.122Z,35.53
2018-03-21T10:01:22.377Z,35.77
2018-03-21T10:06:25.914Z,37.70
2018-03-21T10:11:28.988Z,42.43
2018-03-21T10:16:32.088Z,44.37
2018-03-21T10:21:35.934Z,43.50
2018-03-21T10:26:39.053Z,45.57
2018-03-21T10:31:42.156Z,45.10
2018-03-21T10:36:46.156Z,45.53
2018-03-21T10:41:51.700Z,47.53
2018-03-21T10:46:56.297Z,47.17
2018-03-21T10:52:00.785Z,47.85
2018-03-21T10:57:04.270Z,48.07
2018-03-21T11:02:13.677Z,47.43
2018-03-21T11:07:17.948Z,45.03
2018-03-21T11:12:21.052Z,48.60
2018-03-21T11:17:24.605Z,49.17
2018-03-21T11:22:27.748Z,47.20
2018-03-21T11:27:31.298Z,45.23
2018-03-21T11:32:35.210Z,48.33
2018-03-21T11:37:39.451Z,47.77
2018-03-21T11:42:43.886Z,46.10
2018-03-21T11:47:47.758Z,44.33
2018-03-21T11:52:50.844Z,43.20
2018-03-21T11:57:55.062Z,40.87
2018-03-21T12:02:58.548Z,38.60
2018-03-21T12:08:03.020Z,38.80
2018-03-21T12:13:06.101Z,37.90
2018-03-21T12:18:09.950Z,35.13
2018-03-21T12:23:14.160Z,36.57
2018-03-21T12:28:18.383Z,36.27
2018-03-21T12:33:22.627Z,32.17
2018-03-21T12:38:26.480Z,35.10
2018-03-21T12:43:29.613Z,34.57
2018-03-21T12:48:33.477Z,32.60
2018-03-21T12:53:37.898Z,28.57
2018-03-21T12:58:41.003Z,26.10
2018-03-21T13:03:46.367Z,26.33
2018-03-21T13:08:49.872Z,23.37
2018-03-21T13:13:54.343Z,27.83
2018-03-21T13:18:57.442Z,26.48
2018-03-21T13:24:01.279Z,28.00
2018-03-21T13:29:05.367Z,29.87
2018-03-21T13:34:08.483Z,28.77
2018-03-21T13:39:12.723Z,29.77
2018-03-21T13:44:17.487Z,28.77
2018-03-21T13:49:20.552Z,28.37
2018-03-21T13:54:23.645Z,28.93
2018-03-21T13:59:27.516Z,28.00
2018-03-21T14:04:31.980Z,25.17
2018-03-21T14:09:36.579Z,24.73
2018-03-21T14:14:39.720Z,24.97
2018-03-21T14:19:44.329Z,25.53
2018-03-21T14:24:48.494Z,25.53
2018-03-21T14:29:52.353Z,26.10
2018-03-21T14:34:56.584Z,23.80
2018-03-21T14:40:01.048Z,25.50
2018-03-21T14:45:04.940Z,27.17
2018-03-21T14:50:08.062Z,23.10
2018-03-21T14:55:11.148Z,23.97
2018-03-21T15:00:15.013Z,22.07
2018-03-21T15:05:18.889Z,23.17
2018-03-21T15:10:22.738Z,22.97
2018-03-21T15:15:27.200Z,23.33
2018-03-21T15:20:32.550Z,21.10
2018-03-21T15:25:35.645Z,19.75
2018-03-21T15:30:38.755Z,18.03
2018-03-21T15:35:41.869Z,20.50
2018-03-21T15:40:46.466Z,19.40
2018-03-21T15:45:49.602Z,14.00
2018-03-21T15:50:52.663Z,14.60
2018-03-21T15:55:55.751Z,17.83
2018-03-21T16:00:59.828Z,18.70
2018-03-21T16:06:03.684Z,20.20
2018-03-21T16:11:06.811Z,18.40
2018-03-21T16:16:09.915Z,13.33
2018-03-21T16:21:13.048Z,11.10
2018-03-21T16:26:16.103Z,11.47
2018-03-21T16:31:19.240Z,11.97
2018-03-21T16:36:22.341Z,12.60
2018-03-21T16:41:25.431Z,13.33
2018-03-21T16:46:28.923Z,13.50
2018-03-21T16:51:32.004Z,12.43
2018-03-21T16:56:35.084Z,12.43
2018-03-21T17:01:38.168Z,12.63
2018-03-21T17:06:42.618Z,12.10
2018-03-21T17:11:45.703Z,13.10
2018-03-21T17:16:48.845Z,11.57
2018-03-21T17:21:51.936Z,10.83
2018-03-21T17:26:55.013Z,10.63
2018-03-21T17:31:59.459Z,10.17
2018-03-21T17:37:02.562Z,10.80
2018-03-21T17:42:06.416Z,10.67
2018-03-21T17:47:10.879Z,11.53
2018-03-21T17:52:15.387Z,11.63
2018-03-21T17:57:19.819Z,11.13
2018-03-21T18:02:23.678Z,12.10
2018-03-21T18:07:26.777Z,12.00
2018-03-21T18:12:31.556Z,12.35
2018-03-21T18:17:36.994Z,13.00
2018-03-21T18:22:40.486Z,14.07
2018-03-21T18:27:44.694Z,13.50
2018-03-21T18:32:48.535Z,12.30
2018-03-21T18:37:52.418Z,14.93
2018-03-21T18:42:57.053Z,14.47
2018-03-21T18:48:00.465Z,15.10
2018-03-21T18:53:03.561Z,16.73
2018-03-21T18:58:07.424Z,17.47
2018-03-21T19:03:11.682Z,17.20
2018-03-21T19:08:16.285Z,19.20
2018-03-21T19:13:20.302Z,20.90
2018-03-21T19:18:22.490Z,19.30
2018-03-21T19:23:27.194Z,16.53
2018-03-21T19:28:31.052Z,12.88
2018-03-21T19:33:34.551Z,12.93
2018-03-21T19:38:38.412Z,13.10
2018-03-21T19:43:41.505Z,13.77
2018-03-21T19:48:44.631Z,14.43
2018-03-21T19:53:49.108Z,16.20
2018-03-21T19:58:52.202Z,16.43
2018-03-21T20:03:55.301Z,17.92
2018-03-21T20:08:58.793Z,15.87
2018-03-21T20:14:03.029Z,17.73
2018-03-21T20:19:06.133Z,17.80
2018-03-21T20:24:09.222Z,17.33
2018-03-21T20:29:12.331Z,20.23
2018-03-21T20:34:15.429Z,20.87
2018-03-21T20:39:19.868Z,20.90
2018-03-21T20:44:23.740Z,20.10
2018-03-21T20:49:28.901Z,19.73
2018-03-21T20:54:33.131Z,18.90
2018-03-21T20:59:36.991Z,19.83
2018-03-21T21:04:40.084Z,17.90
2018-03-21T21:09:44.539Z,20.17
2018-03-21T21:14:48.049Z,19.97
2018-03-21T21:19:51.145Z,20.00
2018-03-21T21:24:55.704Z,21.93
2018-03-21T21:30:00.400Z,21.23
2018-03-21T21:35:04.240Z,20.30
2018-03-21T21:40:08.852Z,20.47
2018-03-21T21:45:11.943Z,20.90
2018-03-21T21:50:16.392Z,21.20
2018-03-21T21:55:20.309Z,18.60
2018-03-21T22:00:23.424Z,20.17
2018-03-21T22:05:26.516Z,20.20
2018-03-21T22:10:30.963Z,19.63
2018-03-21T22:15:35.168Z,20.47
2018-03-21T22:20:39.359Z,20.77
2018-03-21T22:25:42.876Z,20.20
2018-03-21T22:30:46.353Z,20.47
2018-03-21T22:35:50.567Z,22.50
2018-03-21T22:40:53.652Z,21.97
2018-03-21T22:45:57.138Z,21.70
2018-03-21T22:51:00.228Z,21.50
2018-03-21T22:56:03.717Z,21.70
2018-03-21T23:01:08.154Z,23.03
2018-03-21T23:06:11.257Z,23.20
2018-03-21T23:11:16.823Z,23.60
2018-03-21T23:16:20.133Z,22.23
2018-03-21T23:21:23.628Z,21.23
2018-03-21T23:26:27.516Z,19.80
2018-03-21T23:31:30.592Z,22.40
2018-03-21T23:36:35.281Z,20.27
2018-03-21T23:41:38.764Z,19.80
2018-03-21T23:46:43.022Z,20.37
2018-03-21T23:51:47.480Z,19.80
2018-03-21T23:56:52.091Z,20.50
